Time;durP1;ratioP1;P1;durP2;ratioP2;P2;SDS_P1;SDS_P2;PMS_P1;PMS_P2;Temp;Humidity;BMP_temperature;BMP_pressure;BME280_temperature;BME280_humidity;BME280_pressure;Samples;Min_cycle;Max_cycle;Signal;HPM_P1;HPM_P2
2023/11/20 00:01:33;;;;;;;;;;;;;;;;;;5072482;28;19916;-62
2023/11/20 00:03:59;;;;;;;;;;;;;;;;;;5067540;28;20253;-60
2023/11/20 00:06:26;;;;;;;;;;;;;;;;;;5062820;28;20372;-60
2023/11/20 00:08:52;;;;;;;;;;;;;;;;;;5075855;28;20471;-60
2023/11/20 00:11:18;;;;;;;;;;;;;;;;;;5070136;28;19987;-60
2023/11/20 00:13:45;;;;;;;;;;;;;;;;;;5067346;28;19956;-63
2023/11/20 00:16:11;;;;;;;;;;;;;;;;;;5080163;28;21606;-64
2023/11/20 00:18:37;;;;;;;;;;;;;;;;;;5073989;28;19955;-64
2023/11/20 00:21:03;;;;;;;;;;;;;;;;;;5074059;28;19920;-64
2023/11/20 00:23:29;;;;;;;;;;;;;;;;;;5075018;28;19958;-64
2023/11/20 00:25:55;;;;;;;;;;;;;;;;;;5066981;28;20395;-64
2023/11/20 00:28:21;;;;;;;;;;;;;;;;;;5066345;28;19919;-64
2023/11/20 00:30:47;;;;;;;;;;;;;;;;;;5075195;28;19955;-63
2023/11/20 00:33:13;;;;;;;;;;;;;;;;;;5060078;28;20368;-64
2023/11/20 00:35:41;;;;;;;;;;;;;;;;;;5070676;28;19922;-64
2023/11/20 00:38:07;;;;;;;;;;;;;;;;;;5074373;28;20265;-64
2023/11/20 00:40:33;;;;;;;;;;;;;;;;;;5062702;28;19935;-64
2023/11/20 00:43:00;;;;;;;;;;;;;;;;;;5058346;28;19920;-64
2023/11/20 00:45:26;;;;;;;;;;;;;;;;;;5073205;28;19918;-64
2023/11/20 00:47:52;;;;;;;;;;;;;;;;;;5073205;28;20376;-64
2023/11/20 00:50:18;;;;;;;;;;;;;;;;;;5073713;28;19920;-64
2023/11/20 00:52:44;;;;;;;;;;;;;;;;;;5064588;28;20331;-64
2023/11/20 00:55:10;;;;;;;;;;;;;;;;;;5065715;28;20262;-64
2023/11/20 00:57:36;;;;;;;;;;;;;;;;;;5064947;28;19958;-64
2023/11/20 01:00:02;;;;;;;;;;;;;;;;;;5069814;28;19913;-64
2023/11/20 01:02:28;;;;;;;;;;;;;;;;;;5065700;28;20392;-64
2023/11/20 01:04:54;;;;;;;;;;;;;;;;;;5074682;28;19995;-64
2023/11/20 01:07:20;;;;;;;;;;;;;;;;;;5074626;28;19935;-64
2023/11/20 01:09:45;;;;;;;;;;;;;;;;;;5067378;28;19916;-64
2023/11/20 01:12:11;;;;;;;;;;;;;;;;;;5068718;28;19917;-64
2023/11/20 01:14:37;;;;;;;;;;;;;;;;;;5072508;28;19920;-64
2023/11/20 01:17:03;;;;;;;;;;;;;;;;;;5077068;28;19996;-63
2023/11/20 01:19:29;;;;;;;;;;;;;;;;;;5068831;28;19916;-64
2023/11/20 01:21:55;;;;;;;;;;;;;;;;;;5059421;28;19947;-63
2023/11/20 01:24:21;;;;;;;;;;;;;;;;;;5065457;28;19995;-64
2023/11/20 01:26:47;;;;;;;;;;;;;;;;;;5059472;28;19921;-64
2023/11/20 01:29:13;;;;;;;;;;;;;;;;;;5070511;28;19969;-64
2023/11/20 01:31:39;;;;;;;;;;;;;;;;;;5068488;28;20323;-64
2023/11/20 01:34:05;;;;;;;;;;;;;;;;;;5059591;28;19971;-64
2023/11/20 01:36:31;;;;;;;;;;;;;;;;;;5057864;28;19912;-64
2023/11/20 01:38:57;;;;;;;;;;;;;;;;;;5072570;28;19912;-63
2023/11/20 01:41:23;;;;;;;;;;;;;;;;;;5064620;28;19983;-63
2023/11/20 01:43:50;;;;;;;;;;;;;;;;;;5065383;28;19999;-63
2023/11/20 01:46:16;;;;;;;;;;;;;;;;;;5075335;28;19991;-63
2023/11/20 01:48:42;;;;;;;;;;;;;;;;;;5073815;28;20367;-63
2023/11/20 01:51:08;;;;;;;;;;;;;;;;;;5072597;28;19913;-64
2023/11/20 01:53:34;;;;;;;;;;;;;;;;;;5067645;28;19912;-64
2023/11/20 01:56:00;;;;;;;;;;;;;;;;;;5073818;28;19963;-64
2023/11/20 01:58:26;;;;;;;;;;;;;;;;;;5072691;28;20391;-64
2023/11/20 02:00:52;;;;;;;;;;;;;;;;;;5072484;28;19963;-63
2023/11/20 02:03:18;;;;;;;;;;;;;;;;;;5071087;28;19913;-64
2023/11/20 02:05:43;;;;;;;;;;;;;;;;;;5074643;28;19923;-64
2023/11/20 02:08:09;;;;;;;;;;;;;;;;;;5068142;28;19913;-64
2023/11/20 02:10:35;;;;;;;;;;;;;;;;;;5067984;28;20435;-64
2023/11/20 02:13:02;;;;;;;;;;;;;;;;;;5063407;28;19919;-64
2023/11/20 02:15:28;;;;;;;;;;;;;;;;;;5065769;28;20012;-64
2023/11/20 02:17:53;;;;;;;;;;;;;;;;;;5083164;28;20363;-64
2023/11/20 02:20:19;;;;;;;;;;;;;;;;;;5071065;28;19959;-63
2023/11/20 02:22:45;;;;;;;;;;;;;;;;;;5071738;28;19921;-63
2023/11/20 02:25:11;;;;;;;;;;;;;;;;;;5070243;28;20007;-63
2023/11/20 02:27:39;;;;;;;;;;;;;;;;;;5066718;28;19920;-63
2023/11/20 02:30:05;;;;;;;;;;;;;;;;;;5072808;28;20409;-63
2023/11/20 02:32:31;;;;;;;;;;;;;;;;;;5071953;28;20011;-63
2023/11/20 02:34:57;;;;;;;;;;;;;;;;;;5060029;28;19924;-64
2023/11/20 02:37:25;;;;;;;;;;;;;;;;;;5072423;28;19912;-63
2023/11/20 02:39:51;;;;;;;;;;;;;;;;;;5076285;28;19948;-63
2023/11/20 02:42:17;;;;;;;;;;;;;;;;;;5073086;28;19999;-63
2023/11/20 02:44:49;;;;;;;;;;;;;;;;;;5071763;28;19986;-63
2023/11/20 02:47:15;;;;;;;;;;;;;;;;;;5073692;28;19917;-64
2023/11/20 02:49:41;;;;;;;;;;;;;;;;;;5062201;28;19964;-64
2023/11/20 02:52:07;;;;;;;;;;;;;;;;;;5072869;28;19909;-64
2023/11/20 02:54:33;;;;;;;;;;;;;;;;;;5071592;28;19966;-63
2023/11/20 02:56:59;;;;;;;;;;;;;;;;;;5070179;28;20364;-64
2023/11/20 02:59:26;;;;;;;;;;;;;;;;;;5064235;28;19960;-64
2023/11/20 03:01:53;;;;;;;;;;;;;;;;;;5070514;28;19912;-63
2023/11/20 03:04:19;;;;;;;;;;;;;;;;;;5060778;28;20276;-65
2023/11/20 03:06:45;;;;;;;;;;;;;;;;;;5059978;28;19917;-63
2023/11/20 03:09:12;;;;;;;;;;;;;;;;;;5072416;28;19924;-63
2023/11/20 03:11:38;;;;;;;;;;;;;;;;;;5071379;28;20003;-64
2023/11/20 03:14:04;;;;;;;;;;;;;;;;;;5058271;28;20042;-63
2023/11/20 03:16:30;;;;;;;;;;;;;;;;;;5071210;28;19913;-64
2023/11/20 03:18:57;;;;;;;;;;;;;;;;;;5059629;28;19916;-63
2023/11/20 03:21:23;;;;;;;;;;;;;;;;;;5052465;28;20373;-63
2023/11/20 03:23:49;;;;;;;;;;;;;;;;;;5065194;28;19919;-64
2023/11/20 03:26:15;;;;;;;;;;;;;;;;;;5070754;28;20019;-65
2023/11/20 03:28:41;;;;;;;;;;;;;;;;;;5068342;28;19966;-64
2023/11/20 03:31:07;;;;;;;;;;;;;;;;;;5067238;28;19951;-64
2023/11/20 03:33:33;;;;;;;;;;;;;;;;;;5073031;28;20003;-64
2023/11/20 03:35:59;;;;;;;;;;;;;;;;;;5072591;28;19993;-64
2023/11/20 03:38:25;;;;;;;;;;;;;;;;;;5069298;28;20329;-64
2023/11/20 03:40:51;;;;;;;;;;;;;;;;;;5045689;28;19912;-64
2023/11/20 03:43:17;;;;;;;;;;;;;;;;;;5076631;28;19935;-61
2023/11/20 03:45:43;;;;;;;;;;;;;;;;;;5077629;28;19908;-64
2023/11/20 03:48:08;;;;;;;;;;;;;;;;;;5096740;28;19962;-63
2023/11/20 03:50:34;;;;;;;;;;;;;;;;;;5077729;28;20423;-66
2023/11/20 03:53:00;;;;;;;;;;;;;;;;;;5076389;28;19959;-64
2023/11/20 03:55:26;;;;;;;;;;;;;;;;;;5076161;28;19974;-64
2023/11/20 03:57:52;;;;;;;;;;;;;;;;;;5063420;28;19909;-63
2023/11/20 04:00:18;;;;;;;;;;;;;;;;;;5056252;28;19919;-63
2023/11/20 04:02:44;;;;;;;;;;;;;;;;;;5060111;28;19989;-63
2023/11/20 04:05:10;;;;;;;;;;;;;;;;;;5072778;28;19913;-63
2023/11/20 04:07:36;;;;;;;;;;;;;;;;;;5074511;28;19916;-63
2023/11/20 04:10:02;;;;;;;;;;;;;;;;;;5088938;28;19959;-64
2023/11/20 04:12:28;;;;;;;;;;;;;;;;;;5075976;28;19970;-63
2023/11/20 04:14:53;;;;;;;;;;;;;;;;;;5056030;28;19916;-63
2023/11/20 04:17:20;;;;;;;;;;;;;;;;;;5093740;28;19908;-63
2023/11/20 04:19:46;;;;;;;;;;;;;;;;;;5095990;28;20031;-63
2023/11/20 04:22:12;;;;;;;;;;;;;;;;;;5085637;28;20372;-63
2023/11/20 04:24:38;;;;;;;;;;;;;;;;;;5075767;28;20011;-63
2023/11/20 04:27:04;;;;;;;;;;;;;;;;;;5069648;28;19974;-63
2023/11/20 04:29:30;;;;;;;;;;;;;;;;;;5059967;28;20392;-63
2023/11/20 04:31:56;;;;;;;;;;;;;;;;;;5059494;28;19960;-63
2023/11/20 04:34:22;;;;;;;;;;;;;;;;;;5055388;28;19913;-64
2023/11/20 04:36:48;;;;;;;;;;;;;;;;;;5055757;28;19921;-63
2023/11/20 04:39:14;;;;;;;;;;;;;;;;;;5073767;28;20384;-64
2023/11/20 04:41:40;;;;;;;;;;;;;;;;;;5075407;28;19917;-63
2023/11/20 04:44:06;;;;;;;;;;;;;;;;;;5071323;28;20334;-63
2023/11/20 04:46:34;;;;;;;;;;;;;;;;;;5070194;28;19955;-63
2023/11/20 04:49:00;;;;;;;;;;;;;;;;;;5069311;28;19916;-63
2023/11/20 04:51:25;;;;;;;;;;;;;;;;;;5075198;28;20003;-63
2023/11/20 04:53:51;;;;;;;;;;;;;;;;;;5075176;28;19908;-63
2023/11/20 04:56:17;;;;;;;;;;;;;;;;;;5073822;28;19920;-63
2023/11/20 04:58:44;;;;;;;;;;;;;;;;;;5074641;28;20038;-63
2023/11/20 05:01:11;;;;;;;;;;;;;;;;;;5074897;28;19909;-63
2023/11/20 05:03:37;;;;;;;;;;;;;;;;;;5071172;28;19926;-63
2023/11/20 05:06:06;;;;;;;;;;;;;;;;;;5077479;28;20364;-63
2023/11/20 05:08:32;;;;;;;;;;;;;;;;;;5063777;28;19938;-63
2023/11/20 05:10:58;;;;;;;;;;;;;;;;;;5084796;28;19994;-64
2023/11/20 05:13:23;;;;;;;;;;;;;;;;;;5090184;28;20314;-63
2023/11/20 05:15:50;;;;;;;;;;;;;;;;;;5084142;28;19912;-64
2023/11/20 05:18:16;;;;;;;;;;;;;;;;;;5094685;28;19969;-63
2023/11/20 05:20:42;;;;;;;;;;;;;;;;;;5084461;28;19921;-63
2023/11/20 05:23:08;;;;;;;;;;;;;;;;;;5056466;28;19959;-64
2023/11/20 05:25:35;;;;;;;;;;;;;;;;;;5081958;28;19947;-64
2023/11/20 05:28:01;;;;;;;;;;;;;;;;;;5091019;28;19912;-63
2023/11/20 05:30:26;;;;;;;;;;;;;;;;;;5082622;28;19975;-63
2023/11/20 05:32:52;;;;;;;;;;;;;;;;;;5066521;28;20061;-63
2023/11/20 05:35:19;;;;;;;;;;;;;;;;;;5075248;28;19977;-63
2023/11/20 05:37:45;;;;;;;;;;;;;;;;;;5081173;28;19923;-63
2023/11/20 05:40:11;;;;;;;;;;;;;;;;;;5083775;28;19908;-63
2023/11/20 05:42:38;;;;;;;;;;;;;;;;;;5087486;28;20354;-63
2023/11/20 05:45:04;;;;;;;;;;;;;;;;;;5073071;28;19921;-64
2023/11/20 05:47:30;;;;;;;;;;;;;;;;;;5079708;28;19916;-64
2023/11/20 05:49:55;;;;;;;;;;;;;;;;;;5074674;28;20704;-63
2023/11/20 05:52:21;;;;;;;;;;;;;;;;;;5083269;28;20005;-63
2023/11/20 05:54:47;;;;;;;;;;;;;;;;;;5084779;28;19912;-63
2023/11/20 05:57:13;;;;;;;;;;;;;;;;;;5087886;28;19915;-63
2023/11/20 05:59:39;;;;;;;;;;;;;;;;;;5072055;28;19944;-63
2023/11/20 06:02:05;;;;;;;;;;;;;;;;;;5074238;28;19996;-63
2023/11/20 06:04:31;;;;;;;;;;;;;;;;;;5074855;28;19958;-63
2023/11/20 06:06:57;;;;;;;;;;;;;;;;;;5080274;28;19917;-63
2023/11/20 06:09:23;;;;;;;;;;;;;;;;;;5084970;28;19955;-63
2023/11/20 06:11:49;;;;;;;;;;;;;;;;;;5086212;28;20338;-63
2023/11/20 06:14:15;;;;;;;;;;;;;;;;;;5081782;28;19920;-63
2023/11/20 06:16:41;;;;;;;;;;;;;;;;;;5079520;28;19920;-63
2023/11/20 06:19:07;;;;;;;;;;;;;;;;;;5074223;28;20325;-63
2023/11/20 06:21:33;;;;;;;;;;;;;;;;;;5082843;28;19919;-63
2023/11/20 06:23:59;;;;;;;;;;;;;;;;;;5080770;28;20292;-63
2023/11/20 06:26:25;;;;;;;;;;;;;;;;;;5084313;28;20174;-63
2023/11/20 06:28:51;;;;;;;;;;;;;;;;;;5071587;28;20331;-63
2023/11/20 06:31:17;;;;;;;;;;;;;;;;;;5083574;28;19913;-63
2023/11/20 06:33:43;;;;;;;;;;;;;;;;;;5071670;28;19912;-63
2023/11/20 06:36:10;;;;;;;;;;;;;;;;;;5085918;28;20303;-64
2023/11/20 06:38:36;;;;;;;;;;;;;;;;;;5067021;28;20054;-64
2023/11/20 06:41:02;;;;;;;;;;;;;;;;;;5071994;28;20035;-63
2023/11/20 06:43:28;;;;;;;;;;;;;;;;;;5078093;28;19909;-63
2023/11/20 06:45:54;;;;;;;;;;;;;;;;;;5092619;28;19912;-63
2023/11/20 06:48:20;;;;;;;;;;;;;;;;;;5090506;28;20401;-63
2023/11/20 06:50:46;;;;;;;;;;;;;;;;;;5081379;28;19947;-63
2023/11/20 06:53:12;;;;;;;;;;;;;;;;;;5086136;28;19912;-63
2023/11/20 06:55:39;;;;;;;;;;;;;;;;;;5092020;28;20343;-63
2023/11/20 06:58:04;;;;;;;;;;;;;;;;;;5073263;28;20050;-63
2023/11/20 07:00:30;;;;;;;;;;;;;;;;;;5075652;28;19975;-66
2023/11/20 07:02:56;;;;;;;;;;;;;;;;;;5071731;28;19977;-63
2023/11/20 07:05:22;;;;;;;;;;;;;;;;;;5074915;28;19916;-63
2023/11/20 07:07:52;;;;;;;;;;;;;;;;;;5080266;28;19916;-63
2023/11/20 07:10:22;;;;;;;;;;;;;;;;;;5077649;28;19960;-63
2023/11/20 07:12:48;;;;;;;;;;;;;;;;;;5075052;28;19944;-63
2023/11/20 07:15:14;;;;;;;;;;;;;;;;;;5092072;28;20340;-63
2023/11/20 07:17:39;;;;;;;;;;;;;;;;;;5091885;28;19908;-63
2023/11/20 07:20:05;;;;;;;;;;;;;;;;;;5088169;28;19912;-63
2023/11/20 07:22:31;;;;;;;;;;;;;;;;;;5068814;28;19959;-63
2023/11/20 07:24:57;;;;;;;;;;;;;;;;;;5073678;28;19912;-63
2023/11/20 07:27:24;;;;;;;;;;;;;;;;;;5072080;28;19924;-63
2023/11/20 07:29:51;;;;;;;;;;;;;;;;;;5068728;28;21546;-63
2023/11/20 07:32:17;;;;;;;;;;;;;;;;;;5077550;28;19944;-63
2023/11/20 07:34:43;;;;;;;;;;;;;;;;;;5080723;28;19988;-65
2023/11/20 07:37:09;;;;;;;;;;;;;;;;;;5082874;28;20045;-65
2023/11/20 07:39:35;;;;;;;;;;;;;;;;;;5091673;28;19912;-65
2023/11/20 07:42:01;;;;;;;;;;;;;;;;;;5076451;28;19920;-65
2023/11/20 07:44:27;;;;;;;;;;;;;;;;;;5065048;28;19909;-65
2023/11/20 07:46:53;;;;;;;;;;;;;;;;;;5062064;28;19959;-64
2023/11/20 07:49:19;;;;;;;;;;;;;;;;;;5077509;28;19916;-65
2023/11/20 07:51:45;;;;;;;;;;;;;;;;;;5073480;28;19916;-64
2023/11/20 07:54:11;;;;;;;;;;;;;;;;;;5083573;28;20276;-64
2023/11/20 07:56:37;;;;;;;;;;;;;;;;;;5072921;28;19997;-65
2023/11/20 07:59:03;;;;;;;;;;;;;;;;;;5070856;28;19912;-64
2023/11/20 08:01:29;;;;;;;;;;;;;;;;;;5065005;28;20011;-65
2023/11/20 08:03:55;;;;;;;;;;;;;;;;;;5070768;28;19916;-64
2023/11/20 08:06:21;;;;;;;;;;;;;;;;;;5067473;28;20002;-64
2023/11/20 08:08:47;;;;;;;;;;;;;;;;;;5068215;28;19919;-64
2023/11/20 08:11:13;;;;;;;;;;;;;;;;;;5070406;28;19912;-64
2023/11/20 08:13:39;;;;;;;;;;;;;;;;;;5071201;28;20365;-65
2023/11/20 08:16:05;;;;;;;;;;;;;;;;;;5074935;28;19924;-65
2023/11/20 08:18:33;;;;;;;;;;;;;;;;;;5058892;28;20281;-65
2023/11/20 08:20:59;;;;;;;;;;;;;;;;;;5073384;28;19960;-65
2023/11/20 08:23:25;;;;;;;;;;;;;;;;;;5072244;28;19950;-64
2023/11/20 08:25:51;;;;;;;;;;;;;;;;;;5070891;28;19912;-65
2023/11/20 08:28:17;;;;;;;;;;;;;;;;;;5065923;28;20388;-65
2023/11/20 08:30:42;;;;;;;;;;;;;;;;;;5073562;28;19963;-65
2023/11/20 08:33:08;;;;;;;;;;;;;;;;;;5062042;28;20318;-64
2023/11/20 08:35:37;;;;;;;;;;;;;;;;;;5072909;28;19949;-64
2023/11/20 08:38:05;;;;;;;;;;;;;;;;;;5063986;28;19932;-65
2023/11/20 08:40:31;;;;;;;;;;;;;;;;;;5071897;28;19913;-64
2023/11/20 08:42:57;;;;;;;;;;;;;;;;;;5073761;28;19920;-64
2023/11/20 08:45:23;;;;;;;;;;;;;;;;;;5065478;28;19963;-64
2023/11/20 08:47:49;;;;;;;;;;;;;;;;;;5075595;28;20003;-65
2023/11/20 08:50:15;;;;;;;;;;;;;;;;;;5075760;28;19939;-64
2023/11/20 08:52:41;;;;;;;;;;;;;;;;;;5078721;28;19992;-65
2023/11/20 08:55:07;;;;;;;;;;;;;;;;;;5075035;28;19997;-64
2023/11/20 08:57:33;;;;;;;;;;;;;;;;;;5072982;28;20291;-64
2023/11/20 08:59:59;;;;;;;;;;;;;;;;;;5075889;28;20331;-63
2023/11/20 09:02:24;;;;;;;;;;;;;;;;;;5072306;28;19908;-63
2023/11/20 09:04:50;;;;;;;;;;;;;;;;;;5078962;28;20344;-63
2023/11/20 09:07:16;;;;;;;;;;;;;;;;;;5085974;28;19978;-65
2023/11/20 09:09:42;;;;;;;;;;;;;;;;;;5072596;28;19959;-64
2023/11/20 09:12:08;;;;;;;;;;;;;;;;;;5076327;28;19908;-64
2023/11/20 09:14:34;;;;;;;;;;;;;;;;;;5085823;28;20339;-64
2023/11/20 09:17:00;;;;;;;;;;;;;;;;;;5088790;28;19912;-64
2023/11/20 09:19:26;;;;;;;;;;;;;;;;;;5081415;28;19963;-64
2023/11/20 09:21:52;;;;;;;;;;;;;;;;;;5079863;28;19957;-64
2023/11/20 09:24:18;;;;;;;;;;;;;;;;;;5077510;28;19916;-64
2023/11/20 09:26:44;;;;;;;;;;;;;;;;;;5073728;28;19947;-64
2023/11/20 09:29:10;;;;;;;;;;;;;;;;;;5070578;28;19920;-64
2023/11/20 09:31:36;;;;;;;;;;;;;;;;;;5092515;28;19916;-64
2023/11/20 09:34:02;;;;;;;;;;;;;;;;;;5086503;28;19985;-63
2023/11/20 09:36:29;;;;;;;;;;;;;;;;;;5090143;28;19920;-64
2023/11/20 09:38:54;;;;;;;;;;;;;;;;;;5093901;28;19912;-64
2023/11/20 09:41:20;;;;;;;;;;;;;;;;;;5091038;28;19965;-63
2023/11/20 09:43:46;;;;;;;;;;;;;;;;;;5093658;28;19959;-63
2023/11/20 09:46:13;;;;;;;;;;;;;;;;;;5088388;28;19908;-64
2023/11/20 09:48:39;;;;;;;;;;;;;;;;;;5076990;28;20249;-63
2023/11/20 09:51:05;;;;;;;;;;;;;;;;;;5091142;28;19995;-63
2023/11/20 09:53:31;;;;;;;;;;;;;;;;;;5093610;28;19908;-64
2023/11/20 09:55:57;;;;;;;;;;;;;;;;;;5081084;28;19919;-64
2023/11/20 09:58:23;;;;;;;;;;;;;;;;;;5073190;28;19912;-65
2023/11/20 10:00:49;;;;;;;;;;;;;;;;;;5083866;28;19926;-65
2023/11/20 10:03:15;;;;;;;;;;;;;;;;;;5083106;28;19916;-64
2023/11/20 10:05:41;;;;;;;;;;;;;;;;;;5080544;28;20003;-64
2023/11/20 10:08:07;;;;;;;;;;;;;;;;;;5093262;28;20429;-63
2023/11/20 10:10:34;;;;;;;;;;;;;;;;;;5076364;28;19924;-64
2023/11/20 10:13:00;;;;;;;;;;;;;;;;;;5084849;28;19938;-63
2023/11/20 10:15:26;;;;;;;;;;;;;;;;;;5092886;28;20325;-63
2023/11/20 10:17:52;;;;;;;;;;;;;;;;;;5089251;28;19912;-64
2023/11/20 10:20:18;;;;;;;;;;;;;;;;;;5073606;28;19997;-64
2023/11/20 10:22:44;;;;;;;;;;;;;;;;;;5070705;28;19916;-64
2023/11/20 10:25:10;;;;;;;;;;;;;;;;;;5077933;28;19912;-63
2023/11/20 10:27:37;;;;;;;;;;;;;;;;;;5092546;28;19962;-63
2023/11/20 10:30:03;;;;;;;;;;;;;;;;;;5092758;28;19985;-63
2023/11/20 10:32:29;;;;;;;;;;;;;;;;;;5092521;28;19912;-64
2023/11/20 10:34:55;;;;;;;;;;;;;;;;;;5092395;28;20045;-64
2023/11/20 10:37:23;;;;;;;;;;;;;;;;;;5090534;28;20638;-64
2023/11/20 10:39:50;;;;;;;;;;;;;;;;;;5088432;28;20033;-63
2023/11/20 10:42:16;;;;;;;;;;;;;;;;;;5082963;28;19919;-63
2023/11/20 10:44:42;;;;;;;;;;;;;;;;;;5087924;28;20326;-64
2023/11/20 10:47:10;;;;;;;;;;;;;;;;;;5089337;28;19948;-63
2023/11/20 10:49:37;;;;;;;;;;;;;;;;;;5092358;28;19912;-64
2023/11/20 10:52:04;;;;;;;;;;;;;;;;;;5072174;28;19913;-63
2023/11/20 10:54:30;;;;;;;;;;;;;;;;;;5091490;28;19923;-64
2023/11/20 10:56:55;;;;;;;;;;;;;;;;;;5075894;28;20725;-64
2023/11/20 10:59:22;;;;;;;;;;;;;;;;;;5078957;28;19909;-63
2023/11/20 11:01:48;;;;;;;;;;;;;;;;;;5090464;28;19916;-63
2023/11/20 11:04:14;;;;;;;;;;;;;;;;;;5092274;28;19939;-65
2023/11/20 11:06:42;;;;;;;;;;;;;;;;;;5083101;28;19951;-65
2023/11/20 11:09:07;;;;;;;;;;;;;;;;;;5084326;28;20339;-65
2023/11/20 11:11:33;;;;;;;;;;;;;;;;;;5091734;28;19943;-65
2023/11/20 11:14:00;;;;;;;;;;;;;;;;;;5087736;28;19915;-64
2023/11/20 11:16:27;;;;;;;;;;;;;;;;;;5071551;28;20031;-64
2023/11/20 11:18:53;;;;;;;;;;;;;;;;;;5084058;28;19915;-64
2023/11/20 11:21:19;;;;;;;;;;;;;;;;;;5091952;28;19908;-64
2023/11/20 11:23:45;;;;;;;;;;;;;;;;;;5091855;28;19912;-64
2023/11/20 11:26:11;;;;;;;;;;;;;;;;;;5090624;28;19948;-63
2023/11/20 11:28:37;;;;;;;;;;;;;;;;;;5091789;28;19970;-64
2023/11/20 11:31:03;;;;;;;;;;;;;;;;;;5081818;28;20368;-64
2023/11/20 11:33:29;;;;;;;;;;;;;;;;;;5091980;28;19908;-64
2023/11/20 11:35:56;;;;;;;;;;;;;;;;;;5086956;28;19916;-63
2023/11/20 11:38:22;;;;;;;;;;;;;;;;;;5083523;28;19916;-63
2023/11/20 11:40:49;;;;;;;;;;;;;;;;;;5091699;28;19908;-64
2023/11/20 11:43:15;;;;;;;;;;;;;;;;;;5091650;28;19908;-63
2023/11/20 11:45:40;;;;;;;;;;;;;;;;;;5063636;28;19959;-64
2023/11/20 11:48:06;;;;;;;;;;;;;;;;;;5072772;28;19912;-63
2023/11/20 11:50:32;;;;;;;;;;;;;;;;;;5082435;28;19927;-64
2023/11/20 11:52:58;;;;;;;;;;;;;;;;;;5062810;28;19956;-63
2023/11/20 11:55:24;;;;;;;;;;;;;;;;;;5075071;28;19923;-64
2023/11/20 11:57:51;;;;;;;;;;;;;;;;;;5074819;28;19968;-64
2023/11/20 12:00:17;;;;;;;;;;;;;;;;;;5069106;28;19995;-64
2023/11/20 12:02:45;;;;;;;;;;;;;;;;;;5078949;28;20007;-64
2023/11/20 12:05:11;;;;;;;;;;;;;;;;;;5077761;28;19919;-63
2023/11/20 12:07:40;;;;;;;;;;;;;;;;;;5079772;28;20006;-64
2023/11/20 12:10:11;;;;;;;;;;;;;;;;;;5087813;28;19925;-64
2023/11/20 12:12:38;;;;;;;;;;;;;;;;;;5057703;28;19916;-64
2023/11/20 12:15:05;;;;;;;;;;;;;;;;;;5095390;28;20391;-60
2023/11/20 12:17:31;;;;;;;;;;;;;;;;;;5073797;28;19912;-60
2023/11/20 12:19:57;;;;;;;;;;;;;;;;;;5084142;28;19944;-60
2023/11/20 12:22:23;;;;;;;;;;;;;;;;;;5085996;28;20392;-60
2023/11/20 12:24:49;;;;;;;;;;;;;;;;;;5074511;28;19913;-60
2023/11/20 12:27:15;;;;;;;;;;;;;;;;;;5069428;28;19925;-60
2023/11/20 12:29:41;;;;;;;;;;;;;;;;;;5076048;28;19967;-61
2023/11/20 12:32:08;;;;;;;;;;;;;;;;;;5064873;28;20292;-61
2023/11/20 12:34:34;;;;;;;;;;;;;;;;;;5087429;28;19920;-59
2023/11/20 12:37:00;;;;;;;;;;;;;;;;;;5094808;28;19908;-60
2023/11/20 12:39:27;;;;;;;;;;;;;;;;;;5094865;28;20391;-61
2023/11/20 12:41:53;;;;;;;;;;;;;;;;;;5078834;28;20019;-61
2023/11/20 12:44:19;;;;;;;;;;;;;;;;;;5074322;28;19969;-61
2023/11/20 12:46:45;;;;;;;;;;;;;;;;;;5073518;28;19959;-59
2023/11/20 12:49:11;;;;;;;;;;;;;;;;;;5069877;28;19928;-60
2023/11/20 12:51:37;;;;;;;;;;;;;;;;;;5077977;28;19974;-60
2023/11/20 12:54:03;;;;;;;;;;;;;;;;;;5077576;28;20108;-60
2023/11/20 12:56:29;;;;;;;;;;;;;;;;;;5080237;28;19918;-60
2023/11/20 12:58:55;;;;;;;;;;;;;;;;;;5093544;28;20326;-60
2023/11/20 13:01:21;;;;;;;;;;;;;;;;;;5089333;28;20229;-62
2023/11/20 13:03:47;;;;;;;;;;;;;;;;;;5081085;28;19916;-61
2023/11/20 13:06:13;;;;;;;;;;;;;;;;;;5091034;28;19909;-60
2023/11/20 13:08:39;;;;;;;;;;;;;;;;;;5092282;28;19996;-60
2023/11/20 13:11:07;;;;;;;;;;;;;;;;;;5086549;28;19962;-60
2023/11/20 13:13:35;;;;;;;;;;;;;;;;;;5080452;28;19919;-60
2023/11/20 13:16:03;;;;;;;;;;;;;;;;;;5068650;28;19921;-60
2023/11/20 13:18:29;;;;;;;;;;;;;;;;;;5083735;28;20283;-60
2023/11/20 13:20:55;;;;;;;;;;;;;;;;;;5080456;28;19909;-60
2023/11/20 13:23:21;;;;;;;;;;;;;;;;;;5093908;28;20422;-63
2023/11/20 13:25:47;;;;;;;;;;;;;;;;;;5079987;28;19924;-64
2023/11/20 13:28:14;;;;;;;;;;;;;;;;;;5085170;28;19944;-64
2023/11/20 13:30:39;;;;;;;;;;;;;;;;;;5089923;28;20011;-64
2023/11/20 13:33:05;;;;;;;;;;;;;;;;;;5091632;28;20414;-63
2023/11/20 13:35:32;;;;;;;;;;;;;;;;;;5093754;28;20003;-61
2023/11/20 13:37:57;;;;;;;;;;;;;;;;;;5093630;28;20713;-59
2023/11/20 13:40:23;;;;;;;;;;;;;;;;;;5093486;28;19917;-59
2023/11/20 13:42:49;;;;;;;;;;;;;;;;;;5081209;28;19920;-60
2023/11/20 13:45:19;;;;;;;;;;;;;;;;;;5069605;28;19959;-60
2023/11/20 13:47:45;;;;;;;;;;;;;;;;;;5073538;28;19913;-60
2023/11/20 13:50:11;;;;;;;;;;;;;;;;;;5079189;28;20387;-60
2023/11/20 13:52:37;;;;;;;;;;;;;;;;;;5093313;28;20030;-61
2023/11/20 13:55:04;;;;;;;;;;;;;;;;;;5081217;28;20002;-59
2023/11/20 13:57:30;;;;;;;;;;;;;;;;;;5079875;28;19920;-59
2023/11/20 13:59:56;;;;;;;;;;;;;;;;;;5080291;28;21679;-59
2023/11/20 14:02:22;;;;;;;;;;;;;;;;;;5081623;28;20020;-59
2023/11/20 14:04:49;;;;;;;;;;;;;;;;;;5074729;28;20397;-61
2023/11/20 14:07:18;;;;;;;;;;;;;;;;;;5091772;28;19908;-59
2023/11/20 14:09:44;;;;;;;;;;;;;;;;;;5093015;28;19978;-60
2023/11/20 14:12:11;;;;;;;;;;;;;;;;;;5083902;28;19909;-59
2023/11/20 14:14:37;;;;;;;;;;;;;;;;;;5070737;28;19913;-60
2023/11/20 14:17:03;;;;;;;;;;;;;;;;;;5074335;28;19962;-60
2023/11/20 14:19:29;;;;;;;;;;;;;;;;;;5078962;28;20430;-60
2023/11/20 14:21:55;;;;;;;;;;;;;;;;;;5080020;28;19912;-63
2023/11/20 14:24:21;;;;;;;;;;;;;;;;;;5075334;28;20006;-59
2023/11/20 14:26:47;;;;;;;;;;;;;;;;;;5082483;28;19926;-59
2023/11/20 14:29:13;;;;;;;;;;;;;;;;;;5074035;28;19997;-60
2023/11/20 14:31:39;;;;;;;;;;;;;;;;;;5075909;28;19916;-61
2023/11/20 14:34:06;;;;;;;;;;;;;;;;;;5087506;28;19912;-60
2023/11/20 14:36:32;;;;;;;;;;;;;;;;;;5078886;28;19908;-59
2023/11/20 14:38:58;;;;;;;;;;;;;;;;;;5092618;28;19908;-59
2023/11/20 14:41:24;;;;;;;;;;;;;;;;;;5073281;28;19959;-58
2023/11/20 14:43:50;;;;;;;;;;;;;;;;;;5073039;28;19913;-63
2023/11/20 14:46:19;;;;;;;;;;;;;;;;;;5080623;28;19919;-63
2023/11/20 14:48:45;;;;;;;;;;;;;;;;;;5092442;28;19996;-64
2023/11/20 14:51:15;;;;;;;;;;;;;;;;;;5086647;28;20023;-64
2023/11/20 14:53:41;;;;;;;;;;;;;;;;;;5065586;28;19974;-63
2023/11/20 14:56:07;;;;;;;;;;;;;;;;;;5063874;28;19952;-63
2023/11/20 14:58:35;;;;;;;;;;;;;;;;;;5078122;28;19951;-63
2023/11/20 15:01:01;;;;;;;;;;;;;;;;;;5067671;28;20335;-63
2023/11/20 15:03:27;;;;;;;;;;;;;;;;;;5077334;28;20000;-63
2023/11/20 15:05:55;;;;;;;;;;;;;;;;;;5079197;28;19995;-63
2023/11/20 15:08:21;;;;;;;;;;;;;;;;;;5085627;28;20365;-64
2023/11/20 15:10:47;;;;;;;;;;;;;;;;;;5075653;28;19967;-63
2023/11/20 15:13:13;;;;;;;;;;;;;;;;;;5070350;28;19932;-63
2023/11/20 15:15:39;;;;;;;;;;;;;;;;;;5073316;28;20409;-64
2023/11/20 15:18:04;;;;;;;;;;;;;;;;;;5066434;28;19950;-63
2023/11/20 15:20:32;;;;;;;;;;;;;;;;;;5080126;28;19916;-64
2023/11/20 15:22:58;;;;;;;;;;;;;;;;;;5067827;28;19952;-64
2023/11/20 15:25:24;;;;;;;;;;;;;;;;;;5070101;28;20001;-64
2023/11/20 15:27:50;;;;;;;;;;;;;;;;;;5074892;28;19920;-64
2023/11/20 15:30:16;;;;;;;;;;;;;;;;;;5078604;28;19925;-64
2023/11/20 15:32:42;;;;;;;;;;;;;;;;;;5075910;28;19955;-64
2023/11/20 15:35:09;;;;;;;;;;;;;;;;;;5092425;28;19931;-64
2023/11/20 15:37:35;;;;;;;;;;;;;;;;;;5085924;28;19916;-63
2023/11/20 15:40:05;;;;;;;;;;;;;;;;;;5077509;28;19920;-64
2023/11/20 15:42:31;;;;;;;;;;;;;;;;;;5085662;28;20020;-64
2023/11/20 15:44:57;;;;;;;;;;;;;;;;;;5086449;28;19939;-63
2023/11/20 15:47:23;;;;;;;;;;;;;;;;;;5066804;28;19913;-63
2023/11/20 15:49:49;;;;;;;;;;;;;;;;;;5082488;28;19959;-63
2023/11/20 15:52:15;;;;;;;;;;;;;;;;;;5072877;28;20455;-63
2023/11/20 15:54:41;;;;;;;;;;;;;;;;;;5088468;28;19916;-60
2023/11/20 15:57:09;;;;;;;;;;;;;;;;;;5082433;28;20030;-61
2023/11/20 15:59:35;;;;;;;;;;;;;;;;;;5078223;28;19974;-60
2023/11/20 16:02:01;;;;;;;;;;;;;;;;;;5071528;28;19948;-61
2023/11/20 16:04:26;;;;;;;;;;;;;;;;;;5072095;28;19950;-59
2023/11/20 16:06:53;;;;;;;;;;;;;;;;;;5078422;28;20003;-60
2023/11/20 16:09:19;;;;;;;;;;;;;;;;;;5089577;28;19923;-60
2023/11/20 16:11:45;;;;;;;;;;;;;;;;;;5086368;28;20401;-59
2023/11/20 16:14:11;;;;;;;;;;;;;;;;;;5081829;28;19956;-60
2023/11/20 16:16:37;;;;;;;;;;;;;;;;;;5070644;28;19913;-61
2023/11/20 16:19:03;;;;;;;;;;;;;;;;;;5079177;28;19954;-60
2023/11/20 16:21:29;;;;;;;;;;;;;;;;;;5075957;28;19939;-61
2023/11/20 16:23:55;;;;;;;;;;;;;;;;;;5066437;28;19999;-60
2023/11/20 16:26:21;;;;;;;;;;;;;;;;;;5082929;28;20445;-60
2023/11/20 16:28:47;;;;;;;;;;;;;;;;;;5073355;28;20031;-59
2023/11/20 16:31:13;;;;;;;;;;;;;;;;;;5087313;28;20045;-59
2023/11/20 16:33:39;;;;;;;;;;;;;;;;;;5091562;28;19980;-60
2023/11/20 16:36:05;;;;;;;;;;;;;;;;;;5088557;28;20403;-59
2023/11/20 16:38:31;;;;;;;;;;;;;;;;;;5071937;28;19913;-60